createdAt,value
2019-06-08T00:00:50.729Z,0
2019-06-08T00:02:00.860Z,0
2019-06-08T00:03:12.994Z,0
2019-06-08T00:04:25.840Z,0
2019-06-08T00:05:35.960Z,0
2019-06-08T00:06:46.063Z,0
2019-06-08T00:07:56.182Z,0
2019-06-08T00:09:06.293Z,0
2019-06-08T00:10:21.145Z,0
2019-06-08T00:11:33.649Z,0
2019-06-08T00:12:43.784Z,0
2019-06-08T00:13:53.928Z,0
2019-06-08T00:15:04.042Z,0
2019-06-08T00:16:15.604Z,0
2019-06-08T00:17:44.515Z,0
2019-06-08T00:18:54.616Z,0
2019-06-08T00:20:04.736Z,0
2019-06-08T00:21:15.908Z,0
2019-06-08T00:22:28.747Z,0
2019-06-08T00:23:38.868Z,0
2019-06-08T00:24:49.071Z,0
2019-06-08T00:25:59.206Z,0
2019-06-08T00:27:09.336Z,0
2019-06-08T00:28:22.443Z,0
2019-06-08T00:29:32.553Z,0
2019-06-08T00:30:44.010Z,0
2019-06-08T00:31:54.136Z,0
2019-06-08T00:33:04.249Z,0
2019-06-08T00:34:14.519Z,0
2019-06-08T00:35:27.313Z,0
2019-06-08T00:36:37.423Z,0
2019-06-08T00:37:47.534Z,0
2019-06-08T00:38:57.685Z,0
2019-06-08T00:40:07.799Z,0
2019-06-08T00:41:20.200Z,0
2019-06-08T00:42:32.871Z,0
2019-06-08T00:43:43.007Z,0
2019-06-08T00:44:53.160Z,0
2019-06-08T00:46:03.321Z,0
2019-06-08T00:47:13.495Z,0
2019-06-08T00:48:27.036Z,0
2019-06-08T00:49:37.148Z,0
2019-06-08T00:50:47.253Z,0
2019-06-08T00:51:57.372Z,0
2019-06-08T00:53:07.490Z,0
2019-06-08T00:54:17.593Z,0
2019-06-08T00:55:30.540Z,0
2019-06-08T00:56:40.728Z,0
2019-06-08T00:57:50.855Z,0
2019-06-08T00:59:00.990Z,0
2019-06-08T01:00:18.271Z,0
2019-06-08T01:01:33.416Z,0
2019-06-08T01:02:42.921Z,0
2019-06-08T01:03:53.037Z,0
2019-06-08T01:05:03.138Z,0
2019-06-08T01:06:13.245Z,0
2019-06-08T01:07:24.700Z,0
2019-06-08T01:08:34.809Z,0
2019-06-08T01:09:44.915Z,0
2019-06-08T01:10:55.044Z,0
2019-06-08T01:12:04.841Z,0
2019-06-08T01:13:14.977Z,0
2019-06-08T01:14:29.023Z,0
2019-06-08T01:15:41.720Z,0
2019-06-08T01:16:51.894Z,0
2019-06-08T01:18:11.025Z,0
2019-06-08T01:19:21.638Z,0
2019-06-08T01:20:34.266Z,0
2019-06-08T01:21:44.371Z,0
2019-06-08T01:22:54.482Z,0
2019-06-08T01:24:04.599Z,0
2019-06-08T01:25:14.812Z,0
2019-06-08T01:26:26.347Z,0
2019-06-08T01:27:37.868Z,0
2019-06-08T01:28:48.001Z,0
2019-06-08T01:29:58.111Z,0
2019-06-08T01:31:08.301Z,0
2019-06-08T01:32:18.451Z,0
2019-06-08T01:33:31.148Z,0
2019-06-08T01:34:41.263Z,0
2019-06-08T01:35:51.377Z,0
2019-06-08T01:37:01.508Z,0
2019-06-08T01:38:11.664Z,0
2019-06-08T01:39:22.959Z,0
2019-06-08T01:40:34.415Z,0
2019-06-08T01:41:44.533Z,0
2019-06-08T01:42:55.643Z,0
2019-06-08T01:44:05.754Z,0
2019-06-08T01:45:15.858Z,0
2019-06-08T01:46:28.067Z,0
2019-06-08T01:47:39.694Z,0
2019-06-08T01:48:49.802Z,0
2019-06-08T01:49:59.913Z,0
2019-06-08T01:51:10.030Z,0
2019-06-08T01:52:20.202Z,0
2019-06-08T01:53:32.921Z,0
2019-06-08T01:54:43.133Z,0
2019-06-08T01:55:52.995Z,0
2019-06-08T01:57:03.097Z,0
2019-06-08T01:58:13.237Z,0
2019-06-08T01:59:23.384Z,0
2019-06-08T02:00:46.254Z,0
2019-06-08T02:01:56.369Z,0
2019-06-08T02:03:06.505Z,0
2019-06-08T02:04:16.611Z,0
2019-06-08T02:05:26.729Z,0
2019-06-08T02:06:39.431Z,0
2019-06-08T02:07:49.621Z,0
2019-06-08T02:08:59.739Z,0
2019-06-08T02:10:09.641Z,0
2019-06-08T02:11:19.803Z,0
2019-06-08T02:12:31.063Z,0
2019-06-08T02:13:42.221Z,0
2019-06-08T02:14:52.338Z,0
2019-06-08T02:16:02.472Z,0
2019-06-08T02:17:12.350Z,0
2019-06-08T02:18:50.042Z,0
2019-06-08T02:20:00.523Z,0
2019-06-08T02:21:10.654Z,0
2019-06-08T02:22:20.770Z,4
2019-06-08T02:23:33.017Z,0
2019-06-08T02:24:44.418Z,0
2019-06-08T02:25:54.519Z,0
2019-06-08T02:27:04.638Z,4
2019-06-08T02:28:14.769Z,4
2019-06-08T02:29:24.881Z,4
2019-06-08T02:30:43.855Z,4
2019-06-08T02:31:55.537Z,4
2019-06-08T02:33:05.646Z,4
2019-06-08T02:34:15.814Z,4
2019-06-08T02:35:25.934Z,4
2019-06-08T02:36:40.878Z,4
2019-06-08T02:37:51.044Z,4
2019-06-08T02:39:01.172Z,4
2019-06-08T02:40:11.287Z,4
2019-06-08T02:41:21.426Z,4
2019-06-08T02:42:37.228Z,8
2019-06-08T02:43:48.054Z,4
2019-06-08T02:44:58.214Z,4
2019-06-08T02:46:08.324Z,4
2019-06-08T02:47:21.273Z,8
2019-06-08T02:48:33.573Z,4
2019-06-08T02:50:08.072Z,8
2019-06-08T02:51:18.347Z,8
2019-06-08T02:52:29.936Z,12
2019-06-08T02:53:46.444Z,12
2019-06-08T02:54:56.566Z,12
2019-06-08T02:56:06.689Z,16
2019-06-08T02:57:16.814Z,16
2019-06-08T02:58:26.937Z,20
2019-06-08T02:59:43.106Z,20
2019-06-08T03:00:53.251Z,24
2019-06-08T03:02:03.357Z,24
2019-06-08T03:03:13.487Z,24
2019-06-08T03:04:29.633Z,28
2019-06-08T03:05:44.286Z,32
2019-06-08T03:06:54.424Z,40
2019-06-08T03:08:04.548Z,48
2019-06-08T03:09:14.724Z,52
2019-06-08T03:10:24.867Z,56
2019-06-08T03:11:38.931Z,56
2019-06-08T03:12:49.919Z,60
2019-06-08T03:14:00.033Z,64
2019-06-08T03:15:10.145Z,68
2019-06-08T03:16:20.256Z,80
2019-06-08T03:17:31.073Z,96
2019-06-08T03:18:47.310Z,120
2019-06-08T03:19:57.440Z,156
2019-06-08T03:21:07.575Z,180
2019-06-08T03:22:18.196Z,176
2019-06-08T03:23:28.359Z,168
2019-06-08T03:24:44.243Z,176
2019-06-08T03:26:00.599Z,192
2019-06-08T03:27:10.716Z,200
2019-06-08T03:28:20.849Z,196
2019-06-08T03:29:32.157Z,220
2019-06-08T03:30:59.546Z,268
2019-06-08T03:32:09.788Z,312
2019-06-08T03:33:19.962Z,340
2019-06-08T03:34:30.175Z,372
2019-06-08T03:36:02.902Z,412
2019-06-08T03:37:12.728Z,404
2019-06-08T03:38:22.843Z,360
2019-06-08T03:39:32.777Z,312
2019-06-08T03:40:48.106Z,352
2019-06-08T03:41:58.222Z,396
2019-06-08T03:43:09.168Z,392
2019-06-08T03:44:19.324Z,344
2019-06-08T03:45:29.505Z,372
2019-06-08T03:46:43.995Z,412
2019-06-08T03:49:09.079Z,428
2019-06-08T03:50:19.219Z,412
2019-06-08T03:51:29.327Z,388
2019-06-08T03:52:48.841Z,400
2019-06-08T03:53:58.991Z,452
2019-06-08T03:55:09.131Z,528
2019-06-08T03:56:19.260Z,564
2019-06-08T03:57:29.361Z,588
2019-06-08T03:58:47.619Z,620
2019-06-08T03:59:57.916Z,676
2019-06-08T04:01:08.073Z,656
2019-06-08T04:02:18.200Z,660
2019-06-08T04:03:28.332Z,660
2019-06-08T04:04:41.812Z,656
2019-06-08T04:05:54.985Z,712
2019-06-08T04:07:05.119Z,772
2019-06-08T04:08:14.991Z,780
2019-06-08T04:09:25.147Z,788
2019-06-08T04:10:35.369Z,852
2019-06-08T04:11:52.771Z,980
2019-06-08T04:13:02.957Z,1072
2019-06-08T04:14:13.072Z,1244
2019-06-08T04:15:23.178Z,1348
2019-06-08T04:16:33.279Z,1380
2019-06-08T04:17:46.607Z,1552
2019-06-08T04:18:58.225Z,1664
2019-06-08T04:20:18.139Z,1708
2019-06-08T04:21:28.302Z,1788
2019-06-08T04:22:38.186Z,1840
2019-06-08T04:23:53.198Z,1852
2019-06-08T04:25:03.325Z,1728
2019-06-08T04:26:13.460Z,1640
2019-06-08T04:27:23.578Z,1596
2019-06-08T04:28:33.729Z,1524
2019-06-08T04:29:50.142Z,1432
2019-06-08T04:31:00.394Z,1420
2019-06-08T04:32:10.521Z,1612
2019-06-08T04:33:20.626Z,1672
2019-06-08T04:34:30.745Z,1704
2019-06-08T04:35:46.934Z,1700
2019-06-08T04:36:58.585Z,1556
2019-06-08T04:38:08.730Z,1660
2019-06-08T04:39:18.868Z,2080
2019-06-08T04:40:28.995Z,2264
2019-06-08T04:41:42.599Z,2432
2019-06-08T04:42:57.924Z,2664
2019-06-08T04:44:07.707Z,2976
2019-06-08T04:45:17.842Z,2876
2019-06-08T04:46:27.965Z,2552
2019-06-08T04:47:38.475Z,2480
2019-06-08T04:48:54.670Z,2436
2019-06-08T04:50:26.784Z,2540
2019-06-08T04:51:38.704Z,3356
2019-06-08T04:52:52.434Z,3024
2019-06-08T04:54:02.581Z,3268
2019-06-08T04:55:12.704Z,3432
2019-06-08T04:56:22.832Z,3488
2019-06-08T04:57:32.585Z,3068
2019-06-08T04:58:51.109Z,2832
2019-06-08T05:00:11.069Z,2988
2019-06-08T05:01:22.040Z,3656
2019-06-08T05:03:01.438Z,3652
2019-06-08T05:04:11.561Z,3764
2019-06-08T05:05:21.694Z,4136
2019-06-08T05:06:31.841Z,4120
2019-06-08T05:07:46.373Z,3976
2019-06-08T05:08:58.426Z,4328
2019-06-08T05:10:08.638Z,4584
2019-06-08T05:11:18.757Z,4756
2019-06-08T05:12:28.891Z,4752
2019-06-08T05:13:39.227Z,4536
2019-06-08T05:14:52.353Z,4328
2019-06-08T05:16:02.215Z,4104
2019-06-08T05:17:12.102Z,3776
2019-06-08T05:18:25.170Z,3408
2019-06-08T05:19:37.410Z,2708
2019-06-08T05:20:54.892Z,2288
2019-06-08T05:22:05.025Z,2292
2019-06-08T05:23:15.154Z,2388
2019-06-08T05:24:25.273Z,2884
2019-06-08T05:25:35.390Z,3624
2019-06-08T05:26:49.801Z,4196
2019-06-08T05:27:59.921Z,4376
2019-06-08T05:29:10.041Z,4256
2019-06-08T05:30:20.178Z,4036
2019-06-08T05:31:30.302Z,3984
2019-06-08T05:32:41.834Z,4200
2019-06-08T05:33:54.571Z,4872
2019-06-08T05:35:04.693Z,5200
2019-06-08T05:36:14.840Z,5136
2019-06-08T05:37:24.972Z,4944
2019-06-08T05:38:35.110Z,4920
2019-06-08T05:39:47.744Z,4800
2019-06-08T05:40:57.927Z,4624
2019-06-08T05:42:07.792Z,4112
2019-06-08T05:43:17.933Z,3976
2019-06-08T05:44:28.138Z,4052
2019-06-08T05:45:37.999Z,4088
2019-06-08T05:46:50.524Z,4344
2019-06-08T05:48:00.643Z,4444
2019-06-08T05:49:10.761Z,4132
2019-06-08T05:50:20.883Z,3724
2019-06-08T05:51:31.011Z,3064
2019-06-08T05:52:42.311Z,2028
2019-06-08T05:53:55.067Z,1628
2019-06-08T05:55:05.221Z,1388
2019-06-08T05:56:15.360Z,1208
2019-06-08T05:57:25.485Z,1224
2019-06-08T05:58:35.602Z,1316
2019-06-08T05:59:48.549Z,1344
2019-06-08T06:00:58.741Z,1340
2019-06-08T06:02:08.850Z,1504
2019-06-08T06:03:18.985Z,1528
2019-06-08T06:04:29.133Z,1576
2019-06-08T06:05:40.178Z,1652
2019-06-08T06:06:51.686Z,1804
2019-06-08T06:08:01.588Z,1924
2019-06-08T06:09:25.705Z,1764
2019-06-08T06:10:35.854Z,1636
2019-06-08T06:11:47.297Z,1656
2019-06-08T06:12:58.898Z,1616
2019-06-08T06:14:09.039Z,1452
2019-06-08T06:15:19.212Z,1344
2019-06-08T06:16:29.370Z,1428
2019-06-08T06:17:40.877Z,1748
2019-06-08T06:18:54.803Z,2116
2019-06-08T06:20:04.928Z,2248
2019-06-08T06:21:19.239Z,2492
2019-06-08T06:22:29.428Z,2724
2019-06-08T06:23:39.558Z,2736
2019-06-08T06:24:52.435Z,2724
2019-06-08T06:26:02.320Z,2716
2019-06-08T06:27:12.213Z,2600
2019-06-08T06:28:22.329Z,2080
2019-06-08T06:29:32.473Z,1756
2019-06-08T06:30:44.283Z,1656
2019-06-08T06:31:57.102Z,1760
2019-06-08T06:33:07.233Z,1748
2019-06-08T06:34:17.339Z,1672
2019-06-08T06:35:27.477Z,1656
2019-06-08T06:36:37.629Z,1900
2019-06-08T06:37:50.152Z,2572
2019-06-08T06:39:00.372Z,3052
2019-06-08T06:40:10.502Z,3256
2019-06-08T06:41:20.643Z,3092
2019-06-08T06:42:32.347Z,3084
2019-06-08T06:43:43.861Z,3172
2019-06-08T06:44:55.401Z,3472
2019-06-08T06:46:05.532Z,3932
2019-06-08T06:47:15.401Z,4640
2019-06-08T06:48:28.321Z,5792
2019-06-08T06:49:38.472Z,6496
2019-06-08T06:50:51.117Z,6912
2019-06-08T06:52:01.253Z,6648
2019-06-08T06:53:11.378Z,6280
2019-06-08T06:54:21.524Z,6248
2019-06-08T06:55:32.802Z,5724
2019-06-08T06:56:43.137Z,6080
2019-06-08T06:57:55.963Z,6360
2019-06-08T06:59:06.099Z,7512
2019-06-08T07:00:16.258Z,8272
2019-06-08T07:01:26.378Z,7164
2019-06-08T07:02:36.523Z,7084
2019-06-08T07:03:47.688Z,5956
2019-06-08T07:04:59.470Z,5736
2019-06-08T07:06:09.898Z,5332
2019-06-08T07:07:20.021Z,5700
2019-06-08T07:08:30.356Z,6864
2019-06-08T07:09:40.499Z,7900
2019-06-08T07:10:53.590Z,8336
2019-06-08T07:12:04.101Z,7408
2019-06-08T07:13:14.225Z,5656
2019-06-08T07:14:24.106Z,5120
2019-06-08T07:15:41.331Z,4904
2019-06-08T07:16:54.363Z,4860
2019-06-08T07:18:05.522Z,4444
2019-06-08T07:19:15.423Z,4600
2019-06-08T07:20:25.553Z,4192
2019-06-08T07:21:48.579Z,4760
2019-06-08T07:23:01.479Z,5144
2019-06-08T07:24:11.611Z,5824
2019-06-08T07:25:21.741Z,6060
2019-06-08T07:26:31.886Z,5808
2019-06-08T07:27:42.064Z,5256
2019-06-08T07:28:55.755Z,5780
2019-06-08T07:30:06.918Z,6096
2019-06-08T07:31:18.077Z,6436
2019-06-08T07:32:28.213Z,6508
2019-06-08T07:33:38.424Z,6976
2019-06-08T07:34:50.289Z,7404
2019-06-08T07:36:02.547Z,8112
2019-06-08T07:37:12.703Z,8420
2019-06-08T07:38:22.841Z,8880
2019-06-08T07:39:33.001Z,9036
2019-06-08T07:40:43.133Z,9260
2019-06-08T07:41:56.685Z,9708
2019-06-08T07:43:07.847Z,9720
2019-06-08T07:44:17.989Z,9472
2019-06-08T07:45:28.132Z,9564
2019-06-08T07:46:38.252Z,9588
2019-06-08T07:47:48.388Z,8376
2019-06-08T07:49:01.354Z,7676
2019-06-08T07:50:12.183Z,8196
2019-06-08T07:51:22.310Z,8328
2019-06-08T07:52:32.504Z,8504
2019-06-08T07:53:42.621Z,9108
2019-06-08T07:54:56.547Z,9452
2019-06-08T07:56:07.160Z,9692
2019-06-08T07:57:17.035Z,9704
2019-06-08T07:58:27.211Z,9648
2019-06-08T07:59:37.093Z,10012
2019-06-08T08:00:47.269Z,9768
2019-06-08T08:02:01.299Z,9684
2019-06-08T08:03:11.413Z,11084
2019-06-08T08:04:21.561Z,10168
2019-06-08T08:05:31.705Z,9240
2019-06-08T08:06:41.849Z,8404
2019-06-08T08:07:53.181Z,8404
2019-06-08T08:09:06.139Z,6868
2019-06-08T08:10:16.790Z,7120
2019-06-08T08:11:27.371Z,7532
2019-06-08T08:12:37.502Z,7364
2019-06-08T08:13:50.068Z,9760
2019-06-08T08:15:04.498Z,10156
2019-06-08T08:16:14.677Z,11696
2019-06-08T08:17:24.796Z,13208
2019-06-08T08:18:34.942Z,14176
2019-06-08T08:19:45.065Z,13888
2019-06-08T08:21:08.029Z,14304
2019-06-08T08:22:34.695Z,12704
2019-06-08T08:23:47.808Z,10352
2019-06-08T08:25:10.587Z,8872
2019-06-08T08:26:20.728Z,8328
2019-06-08T08:27:32.894Z,8732
2019-06-08T08:28:45.395Z,9100
2019-06-08T08:30:02.462Z,9340
2019-06-08T08:31:18.525Z,9964
2019-06-08T08:32:30.796Z,11472
2019-06-08T08:33:42.567Z,11204
2019-06-08T08:34:59.156Z,12036
2019-06-08T08:36:12.167Z,11896
2019-06-08T08:37:24.764Z,13284
2019-06-08T08:38:38.045Z,14048
2019-06-08T08:39:50.516Z,12312
2019-06-08T08:41:13.344Z,14304
2019-06-08T08:42:27.046Z,15104
2019-06-08T08:43:40.257Z,13276
2019-06-08T08:44:52.628Z,19072
2019-06-08T08:46:10.134Z,27104
2019-06-08T08:47:21.178Z,21024
2019-06-08T08:48:37.692Z,17440
2019-06-08T08:49:50.978Z,26912
2019-06-08T08:51:08.623Z,13824
2019-06-08T08:52:33.592Z,15680
2019-06-08T08:53:48.136Z,16192
2019-06-08T08:55:08.256Z,16160
2019-06-08T08:56:20.616Z,13920
2019-06-08T08:57:31.337Z,12684
2019-06-08T08:58:42.958Z,11816
2019-06-08T09:00:08.501Z,12664
2019-06-08T09:01:22.774Z,28832
2019-06-08T09:02:37.292Z,23744
2019-06-08T09:03:48.156Z,13536
2019-06-08T09:05:10.975Z,16736
2019-06-08T09:06:23.044Z,22400
2019-06-08T09:07:38.214Z,13152
2019-06-08T09:08:52.000Z,25536
2019-06-08T09:10:13.240Z,39744
2019-06-08T09:11:28.670Z,39776
2019-06-08T09:12:40.168Z,55936
2019-06-08T09:13:52.322Z,43584
2019-06-08T09:15:13.515Z,40736
2019-06-08T09:16:25.042Z,14368
2019-06-08T09:17:38.699Z,13456
2019-06-08T09:18:52.187Z,18688
2019-06-08T09:20:15.739Z,20896
2019-06-08T09:21:28.066Z,70080
2019-06-08T09:23:12.536Z,16768
2019-06-08T09:24:31.085Z,28256
2019-06-08T09:25:48.062Z,19360
2019-06-08T09:27:10.299Z,16288
2019-06-08T09:28:23.401Z,28192
2019-06-08T09:29:38.575Z,48736
2019-06-08T09:30:51.971Z,50432
2019-06-08T09:32:10.505Z,25248
2019-06-08T09:33:23.568Z,21664
2019-06-08T09:34:38.537Z,19296
2019-06-08T09:35:50.356Z,19744
2019-06-08T09:37:10.363Z,72928
2019-06-08T09:38:23.326Z,41856
2019-06-08T09:39:38.497Z,70496
2019-06-08T09:40:53.229Z,71680
2019-06-08T09:42:11.529Z,71200
2019-06-08T09:43:23.808Z,19456
2019-06-08T09:44:37.628Z,77344
2019-06-08T09:45:50.665Z,75968
2019-06-08T09:47:15.046Z,20064
2019-06-08T09:48:28.567Z,10576
2019-06-08T09:49:40.196Z,10100
2019-06-08T09:50:51.134Z,10900
2019-06-08T09:52:08.387Z,10908
2019-06-08T09:53:44.285Z,9880
2019-06-08T09:55:00.986Z,12056
2019-06-08T09:56:18.459Z,13380
2019-06-08T09:57:30.915Z,9892
2019-06-08T09:58:41.598Z,9280
2019-06-08T09:59:54.705Z,76320
2019-06-08T10:01:18.259Z,76608
2019-06-08T10:02:30.849Z,73472
2019-06-08T10:03:43.946Z,80896
2019-06-08T10:04:58.839Z,24800
2019-06-08T10:06:20.750Z,11096
2019-06-08T10:07:38.512Z,17984
2019-06-08T10:08:50.576Z,12948
2019-06-08T10:10:11.859Z,12628
2019-06-08T10:11:22.011Z,21824
2019-06-08T10:12:33.119Z,87712
2019-06-08T10:13:52.555Z,75328
2019-06-08T10:15:10.680Z,19232
2019-06-08T10:16:23.281Z,23040
2019-06-08T10:17:40.249Z,87776
2019-06-08T10:19:00.329Z,89824
2019-06-08T10:20:20.152Z,74816
2019-06-08T10:21:32.505Z,20928
2019-06-08T10:22:42.676Z,20032
2019-06-08T10:23:59.702Z,15232
2019-06-08T10:25:18.132Z,42592
2019-06-08T10:26:30.533Z,89248
2019-06-08T10:27:43.390Z,90880
2019-06-08T10:29:00.035Z,88640
2019-06-08T10:30:17.119Z,89472
2019-06-08T10:31:48.305Z,86976
2019-06-08T10:33:05.697Z,88416
2019-06-08T10:34:18.733Z,92032
2019-06-08T10:35:33.367Z,87680
2019-06-08T10:36:46.024Z,86624
2019-06-08T10:38:11.613Z,88640
2019-06-08T10:39:22.010Z,86208
2019-06-08T10:40:33.555Z,85792
2019-06-08T10:41:48.799Z,88000
2019-06-08T10:43:09.486Z,87424
2019-06-08T10:44:28.326Z,83968
2019-06-08T10:45:38.673Z,86240
2019-06-08T10:46:50.766Z,87744
2019-06-08T10:48:06.877Z,84160
2019-06-08T10:49:23.749Z,84000
2019-06-08T10:50:36.535Z,86944
2019-06-08T10:51:51.120Z,87200
2019-06-08T10:53:10.436Z,85856
2019-06-08T10:54:24.795Z,86464
2019-06-08T10:55:37.760Z,87392
2019-06-08T10:56:53.352Z,86752
2019-06-08T10:58:11.204Z,87840
2019-06-08T10:59:23.439Z,86656
2019-06-08T11:00:35.601Z,87232
2019-06-08T11:01:46.719Z,84352
2019-06-08T11:03:00.316Z,81216
2019-06-08T11:05:30.584Z,88512
2019-06-08T11:06:44.803Z,87328
2019-06-08T11:07:55.761Z,87744
2019-06-08T11:09:21.560Z,89408
2019-06-08T11:10:31.790Z,89568
2019-06-08T11:11:43.213Z,91680
2019-06-08T11:12:58.145Z,87392
2019-06-08T11:14:25.244Z,84192
2019-06-08T11:15:37.812Z,88992
2019-06-08T11:16:50.068Z,93184
2019-06-08T11:18:11.635Z,26880
2019-06-08T11:19:28.808Z,57504
2019-06-08T11:20:40.420Z,88160
2019-06-08T11:21:52.984Z,88064
2019-06-08T11:23:15.122Z,83904
2019-06-08T11:24:33.595Z,83264
2019-06-08T11:25:48.775Z,86016
2019-06-08T11:27:01.249Z,86208
2019-06-08T11:28:21.045Z,84608
2019-06-08T11:29:33.386Z,85440
2019-06-08T11:30:48.051Z,85952
2019-06-08T11:32:02.018Z,87840
2019-06-08T11:33:17.437Z,10864
2019-06-08T11:34:31.205Z,94752
2019-06-08T11:35:43.180Z,89568
2019-06-08T11:36:59.046Z,85312
2019-06-08T11:38:20.397Z,86272
2019-06-08T11:39:33.515Z,20960
2019-06-08T11:40:47.809Z,77600
2019-06-08T11:41:58.750Z,33632
2019-06-08T11:43:13.385Z,82720
2019-06-08T11:44:27.579Z,85824
2019-06-08T11:45:40.352Z,88896
2019-06-08T11:46:52.656Z,86432
2019-06-08T11:48:08.875Z,82176
2019-06-08T11:49:23.586Z,81696
2019-06-08T11:50:39.041Z,83712
2019-06-08T11:51:52.773Z,82912
2019-06-08T11:53:10.544Z,79872
2019-06-08T11:54:47.889Z,80416
2019-06-08T11:56:01.160Z,82336
2019-06-08T11:57:17.613Z,82080
2019-06-08T11:58:33.013Z,82208
2019-06-08T11:59:44.874Z,81120
2019-06-08T12:00:58.878Z,79680
2019-06-08T12:02:21.031Z,78368
2019-06-08T12:03:33.185Z,80448
2019-06-08T12:04:47.573Z,83232
2019-06-08T12:06:01.997Z,81696
2019-06-08T12:07:15.354Z,80160
2019-06-08T12:08:31.033Z,80640
2019-06-08T12:09:41.232Z,80736
2019-06-08T12:10:53.986Z,78912
2019-06-08T12:12:18.521Z,84000
2019-06-08T12:13:32.701Z,16512
2019-06-08T12:14:47.556Z,12312
2019-06-08T12:15:58.840Z,88288
2019-06-08T12:17:22.499Z,24352
2019-06-08T12:18:35.349Z,90496
2019-06-08T12:19:50.079Z,83968
2019-06-08T12:21:03.799Z,82912
2019-06-08T12:22:21.818Z,62944
2019-06-08T12:23:32.126Z,83936
2019-06-08T12:24:49.163Z,14432
2019-06-08T12:25:59.314Z,86112
2019-06-08T12:27:40.067Z,19040
2019-06-08T12:28:51.145Z,30240
2019-06-08T12:30:17.204Z,87904
2019-06-08T12:31:37.696Z,85472
2019-06-08T12:32:50.315Z,79136
2019-06-08T12:34:01.226Z,77952
2019-06-08T12:35:18.060Z,83168
2019-06-08T12:36:32.868Z,23616
2019-06-08T12:37:48.339Z,10708
2019-06-08T12:39:03.434Z,13760
2019-06-08T12:40:23.165Z,89056
2019-06-08T12:41:40.213Z,90176
2019-06-08T12:42:50.504Z,88096
2019-06-08T12:44:02.612Z,16736
2019-06-08T12:45:15.147Z,47712
2019-06-08T12:46:30.522Z,83200
2019-06-08T12:47:42.994Z,64448
2019-06-08T12:48:58.044Z,77568
2019-06-08T12:50:13.128Z,77888
2019-06-08T12:51:28.048Z,79904
2019-06-08T12:52:39.090Z,78720
2019-06-08T12:53:51.094Z,31680
2019-06-08T12:55:25.536Z,15360
2019-06-08T12:56:37.748Z,80960
2019-06-08T12:57:48.382Z,78816
2019-06-08T12:59:02.806Z,76096
2019-06-08T13:00:22.512Z,77632
2019-06-08T13:01:35.396Z,80640
2019-06-08T13:02:47.728Z,81728
2019-06-08T13:04:00.622Z,77440
2019-06-08T13:05:22.528Z,52800
2019-06-08T13:06:37.760Z,86368
2019-06-08T13:07:49.939Z,16352
2019-06-08T13:09:02.576Z,59552
2019-06-08T13:10:15.173Z,75424
2019-06-08T13:11:33.131Z,79168
2019-06-08T13:12:47.901Z,80064
2019-06-08T13:13:58.259Z,74272
2019-06-08T13:15:11.583Z,73088
2019-06-08T13:16:30.836Z,10456
2019-06-08T13:17:42.929Z,81920
2019-06-08T13:18:55.385Z,38976
2019-06-08T13:20:07.832Z,74016
2019-06-08T13:21:40.909Z,79168
2019-06-08T13:22:53.083Z,18048
2019-06-08T13:24:08.683Z,14432
2019-06-08T13:25:48.001Z,17728
2019-06-08T13:27:00.374Z,19424
2019-06-08T13:28:25.572Z,34624
2019-06-08T13:29:36.335Z,57696
2019-06-08T13:30:47.842Z,72960
2019-06-08T13:31:58.575Z,12876
2019-06-08T13:33:14.366Z,11844
2019-06-08T13:34:30.848Z,11256
2019-06-08T13:35:44.242Z,11324
2019-06-08T13:36:55.936Z,15456
2019-06-08T13:38:08.490Z,22816
2019-06-08T13:39:23.060Z,37376
2019-06-08T13:40:37.671Z,71360
2019-06-08T13:41:52.103Z,20608
2019-06-08T13:43:03.100Z,9864
2019-06-08T13:44:16.762Z,9416
2019-06-08T13:45:32.766Z,9656
2019-06-08T13:46:45.170Z,10288
2019-06-08T13:48:01.204Z,11284
2019-06-08T13:49:14.641Z,10852
2019-06-08T13:50:31.051Z,10080
2019-06-08T13:51:43.310Z,11580
2019-06-08T13:52:58.803Z,23840
2019-06-08T13:54:11.034Z,18336
2019-06-08T13:55:59.207Z,11624
2019-06-08T13:57:11.037Z,27968
2019-06-08T13:58:34.564Z,66656
2019-06-08T13:59:48.412Z,65600
2019-06-08T14:01:05.025Z,8888
2019-06-08T14:02:28.937Z,60256
2019-06-08T14:03:41.130Z,60128
2019-06-08T14:04:54.065Z,50784
2019-06-08T14:06:07.654Z,58880
2019-06-08T14:07:34.263Z,55712
2019-06-08T14:08:47.878Z,53504
2019-06-08T14:10:03.115Z,56640
2019-06-08T14:11:15.530Z,59712
2019-06-08T14:12:38.204Z,57920
2019-06-08T14:13:50.489Z,9344
2019-06-08T14:15:03.167Z,22816
2019-06-08T14:16:25.240Z,59872
2019-06-08T14:17:37.910Z,56512
2019-06-08T14:18:48.569Z,54656
2019-06-08T14:20:01.720Z,55808
2019-06-08T14:21:11.975Z,54720
2019-06-08T14:22:28.848Z,54688
2019-06-08T14:23:43.582Z,54336
2019-06-08T14:24:56.155Z,55008
2019-06-08T14:26:08.283Z,55072
2019-06-08T14:27:19.458Z,56064
2019-06-08T14:28:33.111Z,51488
2019-06-08T14:29:45.821Z,53440
2019-06-08T14:30:59.320Z,42336
2019-06-08T14:32:10.330Z,54464
2019-06-08T14:33:34.075Z,11928
2019-06-08T14:34:47.975Z,35936
2019-06-08T14:36:03.890Z,14560
2019-06-08T14:37:16.054Z,19168
2019-06-08T14:38:44.439Z,10836
2019-06-08T14:39:57.490Z,43936
2019-06-08T14:41:09.989Z,53728
2019-06-08T14:42:29.779Z,52544
2019-06-08T14:43:43.102Z,50208
2019-06-08T14:44:57.723Z,38272
2019-06-08T14:46:10.438Z,38048
2019-06-08T14:47:21.212Z,49824
2019-06-08T14:48:40.466Z,47872
2019-06-08T14:49:55.933Z,47712
2019-06-08T14:51:08.714Z,49216
2019-06-08T14:52:22.626Z,9548
2019-06-08T14:53:38.670Z,8644
2019-06-08T14:54:53.294Z,8680
2019-06-08T14:56:15.046Z,46944
2019-06-08T14:57:31.813Z,47040
2019-06-08T14:58:43.439Z,44800
2019-06-08T15:00:08.596Z,40928
2019-06-08T15:01:28.480Z,25856
2019-06-08T15:02:40.499Z,13248
2019-06-08T15:03:52.944Z,11784
2019-06-08T15:05:03.121Z,10288
2019-06-08T15:06:17.653Z,10788
2019-06-08T15:07:38.640Z,9200
2019-06-08T15:08:52.684Z,8732
2019-06-08T15:10:09.585Z,8780
2019-06-08T15:11:21.295Z,8300
2019-06-08T15:12:34.435Z,8684
2019-06-08T15:13:51.152Z,9100
2019-06-08T15:15:02.880Z,9068
2019-06-08T15:16:18.004Z,7868
2019-06-08T15:17:34.364Z,8600
2019-06-08T15:18:45.996Z,8564
2019-06-08T15:19:58.409Z,9856
2019-06-08T15:21:10.437Z,10048
2019-06-08T15:22:22.286Z,9540
2019-06-08T15:23:37.374Z,8320
2019-06-08T15:24:47.905Z,7428
2019-06-08T15:25:58.225Z,6456
2019-06-08T15:27:10.360Z,5096
2019-06-08T15:28:23.088Z,5160
2019-06-08T15:29:47.564Z,5932
2019-06-08T15:31:02.355Z,5812
2019-06-08T15:32:17.809Z,5368
2019-06-08T15:33:38.172Z,5048
2019-06-08T15:34:53.068Z,4888
2019-06-08T15:36:05.511Z,5000
2019-06-08T15:37:18.445Z,5404
2019-06-08T15:38:33.518Z,6420
2019-06-08T15:39:48.580Z,8088
2019-06-08T15:41:02.498Z,8512
2019-06-08T15:42:17.875Z,8144
2019-06-08T15:43:37.510Z,7132
2019-06-08T15:44:50.461Z,5864
2019-06-08T15:46:03.857Z,5328
2019-06-08T15:47:17.818Z,4300
2019-06-08T15:48:34.194Z,3948
2019-06-08T15:49:50.012Z,4240
2019-06-08T15:51:03.150Z,5748
2019-06-08T15:52:17.504Z,5604
2019-06-08T15:53:31.194Z,5712
2019-06-08T15:54:48.377Z,6188
2019-06-08T15:56:00.868Z,5488
2019-06-08T15:57:11.007Z,4756
2019-06-08T15:58:23.085Z,5184
2019-06-08T15:59:45.668Z,5788
2019-06-08T16:01:00.560Z,5820
2019-06-08T16:02:10.738Z,5268
2019-06-08T16:03:20.828Z,4452
2019-06-08T16:04:33.799Z,4064
2019-06-08T16:05:44.098Z,3992
2019-06-08T16:06:56.579Z,3916
2019-06-08T16:08:10.825Z,3856
2019-06-08T16:09:20.722Z,3920
2019-06-08T16:10:34.251Z,4092
2019-06-08T16:11:44.443Z,4212
2019-06-08T16:12:54.585Z,4176
2019-06-08T16:14:04.797Z,4188
2019-06-08T16:15:15.225Z,4792
2019-06-08T16:16:25.390Z,5580
2019-06-08T16:17:38.383Z,5372
2019-06-08T16:18:48.578Z,5496
2019-06-08T16:20:00.626Z,5412
2019-06-08T16:21:10.785Z,5504
2019-06-08T16:22:20.986Z,4944
2019-06-08T16:23:33.668Z,4328
2019-06-08T16:24:43.565Z,3928
2019-06-08T16:25:53.734Z,3492
2019-06-08T16:27:03.540Z,3436
2019-06-08T16:28:13.752Z,3716